createdAt,value
2019-05-23T00:02:42.989Z,11.5
2019-05-23T00:04:42.515Z,11.5
2019-05-23T00:06:42.944Z,11.5
2019-05-23T04:12:52.689Z,9.8
2019-05-23T04:14:36.208Z,9.8
2019-05-23T04:27:10.701Z,9.8
2019-05-23T04:28:35.342Z,9.7
2019-05-23T04:36:45.548Z,9.8
2019-05-23T04:42:37.999Z,9.8
2019-05-23T04:48:14.869Z,9.9
2019-05-23T04:52:42.263Z,10
2019-05-23T04:57:10.232Z,10
2019-05-23T05:10:58.032Z,10
2019-05-23T05:12:10.422Z,10.3
2019-05-23T05:14:26.913Z,10.3
2019-05-23T05:18:35.435Z,10.4
2019-05-23T05:20:35.858Z,10.6
2019-05-23T05:22:36.454Z,10.6
2019-05-23T05:24:40.861Z,10.6
2019-05-23T05:26:36.523Z,10.8
2019-05-23T05:28:36.191Z,10.8
2019-05-23T05:30:35.801Z,11.6
2019-05-23T05:32:46.250Z,11.6
2019-05-23T05:34:36.279Z,11.6
2019-05-23T05:36:34.266Z,12.2
2019-05-23T05:38:35.870Z,12.2
2019-05-23T05:40:36.358Z,12.4
2019-05-23T05:42:35.897Z,12.4
2019-05-23T05:44:36.384Z,12.4
2019-05-23T05:46:36.145Z,12.4
2019-05-23T05:48:36.842Z,12.4
2019-05-23T05:50:36.433Z,12.6
2019-05-23T05:52:36.120Z,12.6
2019-05-23T05:54:35.759Z,12.6
2019-05-23T05:56:36.280Z,12.7
2019-05-23T05:58:36.063Z,12.7
2019-05-23T06:00:36.538Z,12.9
2019-05-23T06:02:36.082Z,12.9
2019-05-23T06:04:37.096Z,12.9
2019-05-23T06:06:35.132Z,12.9
2019-05-23T06:08:36.586Z,12.9
2019-05-23T06:10:36.171Z,13.5
2019-05-23T06:12:35.630Z,13.5
2019-05-23T06:14:36.292Z,13.5
2019-05-23T06:16:35.896Z,13.4
2019-05-23T06:18:36.601Z,13.4
2019-05-23T06:20:36.085Z,13.4
2019-05-23T06:22:36.682Z,13.4
2019-05-23T06:24:57.384Z,13.4
2019-05-23T06:26:36.833Z,13.5
2019-05-23T06:28:36.388Z,13.5
2019-05-23T06:30:35.857Z,13.3
2019-05-23T06:32:36.277Z,13.3
2019-05-23T06:34:35.838Z,13.3
2019-05-23T06:36:36.391Z,13.5
2019-05-23T06:38:36.148Z,13.5
2019-05-23T06:40:36.612Z,13.6
2019-05-23T06:42:36.312Z,13.6
2019-05-23T06:44:35.808Z,13.6
2019-05-23T06:46:36.358Z,13.8
2019-05-23T06:48:35.836Z,13.8
2019-05-23T06:50:36.875Z,14.3
2019-05-23T06:52:34.957Z,14.3
2019-05-23T06:54:36.550Z,14.3
2019-05-23T06:56:36.198Z,14.7
2019-05-23T06:58:35.845Z,14.7
2019-05-23T07:00:36.275Z,14.9
2019-05-23T07:02:35.823Z,14.9
2019-05-23T07:04:36.282Z,14.9
2019-05-23T07:06:35.741Z,14.9
2019-05-23T07:08:36.302Z,14.9
2019-05-23T07:10:35.883Z,14.9
2019-05-23T07:12:36.458Z,14.9
2019-05-23T07:14:35.947Z,14.9
2019-05-23T07:16:36.386Z,15.1
2019-05-23T07:18:36.063Z,15.1
2019-05-23T07:20:36.457Z,15
2019-05-23T07:22:36.113Z,15
2019-05-23T07:24:36.624Z,15
2019-05-23T07:26:36.221Z,15.1
2019-05-23T07:28:35.756Z,15.1
2019-05-23T07:30:36.258Z,15.2
2019-05-23T07:32:36.070Z,15.2
2019-05-23T07:34:36.640Z,15.2
2019-05-23T07:36:36.676Z,15.2
2019-05-23T07:38:34.878Z,15.2
2019-05-23T07:40:34.826Z,15.5
2019-05-23T07:42:36.345Z,15.5
2019-05-23T07:44:49.063Z,15.5
2019-05-23T07:46:36.384Z,15.7
2019-05-23T07:48:35.932Z,15.7
2019-05-23T07:50:36.519Z,15.6
2019-05-23T07:52:36.143Z,15.6
2019-05-23T07:54:36.703Z,15.6
2019-05-23T07:56:36.193Z,15.8
2019-05-23T07:58:35.716Z,15.8
2019-05-23T08:02:36.685Z,15.9
2019-05-23T08:04:36.177Z,15.9
2019-05-23T08:06:35.689Z,16.1
2019-05-23T08:08:36.279Z,16.1
2019-05-23T08:10:35.913Z,15.9
2019-05-23T08:12:36.423Z,15.9
2019-05-23T08:14:36.028Z,15.9
2019-05-23T08:16:36.639Z,16.2
2019-05-23T08:18:36.314Z,16.2
2019-05-23T08:20:35.832Z,16.3
2019-05-23T08:22:36.528Z,16.3
2019-05-23T08:24:36.103Z,16.3
2019-05-23T08:26:36.828Z,16.6
2019-05-23T08:28:36.319Z,16.6
2019-05-23T08:30:35.822Z,16.6
2019-05-23T08:32:36.300Z,16.6
2019-05-23T08:34:43.412Z,16.6
2019-05-23T08:36:35.865Z,16.6
2019-05-23T08:38:36.467Z,16.6
2019-05-23T08:40:35.911Z,16.8
2019-05-23T08:42:36.405Z,16.8
2019-05-23T08:44:35.919Z,16.8
2019-05-23T08:46:36.557Z,16.7
2019-05-23T08:48:36.088Z,16.7
2019-05-23T08:50:36.765Z,16.6
2019-05-23T08:52:36.318Z,16.6
2019-05-23T08:54:35.998Z,16.6
2019-05-23T08:56:36.585Z,16.6
2019-05-23T08:58:36.162Z,16.6
2019-05-23T09:00:35.932Z,16.7
2019-05-23T09:02:36.589Z,16.7
2019-05-23T09:04:36.116Z,16.7
2019-05-23T09:06:36.806Z,16.8
2019-05-23T09:08:36.419Z,16.8
2019-05-23T09:10:35.968Z,16.9
2019-05-23T09:12:36.485Z,16.9
2019-05-23T09:14:36.017Z,16.9
2019-05-23T09:16:36.562Z,17.1
2019-05-23T09:18:36.344Z,17.1
2019-05-23T09:20:35.833Z,17.3
2019-05-23T09:22:36.512Z,17.3
2019-05-23T09:24:36.019Z,17.3
2019-05-23T09:26:36.723Z,17.3
2019-05-23T09:28:36.415Z,17.3
2019-05-23T09:30:35.917Z,17.6
2019-05-23T09:32:36.517Z,17.6
2019-05-23T09:34:36.155Z,17.6
2019-05-23T09:36:35.668Z,17.8
2019-05-23T09:38:36.324Z,17.8
2019-05-23T09:52:39.672Z,18.1
2019-05-23T09:54:36.213Z,18.3
2019-05-23T09:56:35.838Z,18.3
2019-05-23T09:58:36.477Z,18.3
2019-05-23T10:00:36.073Z,18.3
2019-05-23T10:02:36.697Z,18.3
2019-05-23T10:04:36.349Z,18.3
2019-05-23T10:06:36.013Z,18.3
2019-05-23T10:08:36.624Z,17.9
2019-05-23T10:10:36.356Z,17.9
2019-05-23T10:12:35.763Z,17.5
2019-05-23T10:14:36.444Z,17.5
2019-05-23T10:16:35.763Z,17.5
2019-05-23T10:18:36.293Z,17.5
2019-05-23T10:20:35.736Z,17.5
2019-05-23T10:22:36.275Z,18.2
2019-05-23T10:24:35.916Z,18.2
2019-05-23T10:26:36.537Z,18.2
2019-05-23T10:28:36.199Z,18.1
2019-05-23T10:30:35.737Z,18.1
2019-05-23T10:32:36.257Z,18.8
2019-05-23T10:34:35.955Z,18.8
2019-05-23T10:36:36.651Z,18.8
2019-05-23T10:38:36.215Z,18.7
2019-05-23T10:40:36.369Z,18.7
2019-05-23T10:42:35.896Z,18.9
2019-05-23T10:44:36.406Z,18.9
2019-05-23T10:46:35.931Z,18.9
2019-05-23T10:48:36.482Z,19.4
2019-05-23T10:50:45.859Z,19.4
2019-05-23T10:52:36.318Z,18.7
2019-05-23T10:54:35.872Z,18.7
2019-05-23T10:56:36.233Z,18.7
2019-05-23T10:58:36.446Z,17.9
2019-05-23T11:00:36.133Z,17.9
2019-05-23T11:02:36.639Z,17.9
2019-05-23T11:04:36.056Z,17.9
2019-05-23T11:06:36.677Z,17.9
2019-05-23T11:08:36.226Z,18.3
2019-05-23T11:10:35.823Z,18.3
2019-05-23T11:12:36.287Z,18.4
2019-05-23T11:14:35.910Z,18.4
2019-05-23T11:16:36.512Z,18.4
2019-05-23T11:18:36.377Z,19
2019-05-23T11:20:36.950Z,19
2019-05-23T11:22:36.483Z,19
2019-05-23T11:24:36.300Z,19
2019-05-23T11:26:35.999Z,19
2019-05-23T11:28:36.525Z,19
2019-05-23T11:30:36.310Z,19
2019-05-23T11:32:35.688Z,19.1
2019-05-23T11:34:36.262Z,19.1
2019-05-23T11:36:37.678Z,19.1
2019-05-23T11:38:36.189Z,19.2
2019-05-23T11:40:35.629Z,19.2
2019-05-23T11:42:36.417Z,19
2019-05-23T11:44:36.016Z,19
2019-05-23T11:46:36.499Z,19
2019-05-23T11:48:36.358Z,18.7
2019-05-23T11:50:35.799Z,18.7
2019-05-23T11:52:36.112Z,18.1
2019-05-23T11:54:35.685Z,18.1
2019-05-23T11:56:36.072Z,18.1
2019-05-23T11:58:36.835Z,18.6
2019-05-23T12:02:36.512Z,18.6
2019-05-23T12:04:36.030Z,18.6
2019-05-23T12:06:56.950Z,18.6
2019-05-23T12:08:36.048Z,18.2
2019-05-23T12:10:35.726Z,18.2
2019-05-23T12:12:36.529Z,17.9
2019-05-23T12:14:36.344Z,17.9
2019-05-23T12:16:35.787Z,17.9
2019-05-23T12:18:36.368Z,18
2019-05-23T12:20:35.864Z,18
2019-05-23T12:22:36.650Z,18.9
2019-05-23T12:24:36.577Z,18.9
2019-05-23T12:26:36.196Z,18.9
2019-05-23T12:28:35.748Z,19.5
2019-05-23T12:30:36.305Z,19.5
2019-05-23T12:32:35.749Z,18.9
2019-05-23T12:34:36.387Z,18.9
2019-05-23T12:36:35.934Z,18.9
2019-05-23T12:38:36.567Z,18.4
2019-05-23T12:40:36.807Z,18.4
2019-05-23T12:42:36.299Z,19
2019-05-23T12:44:35.852Z,19
2019-05-23T12:46:36.551Z,19
2019-05-23T12:48:36.277Z,19.3
2019-05-23T12:50:35.959Z,19.3
2019-05-23T12:52:36.480Z,19.3
2019-05-23T12:54:36.086Z,19.3
2019-05-23T12:56:36.544Z,19.3
2019-05-23T12:58:36.234Z,18.8
2019-05-23T13:00:36.428Z,18.8
2019-05-23T13:02:36.619Z,18.8
2019-05-23T13:04:36.098Z,18.8
2019-05-23T13:06:35.681Z,18.8
2019-05-23T13:08:36.276Z,19.3
2019-05-23T13:10:35.766Z,19.3
2019-05-23T13:12:36.400Z,19.6
2019-05-23T13:14:35.991Z,19.6
2019-05-23T13:16:36.703Z,19.6
2019-05-23T13:18:36.343Z,19.3
2019-05-23T13:20:36.012Z,19.3
2019-05-23T13:22:36.529Z,19.4
2019-05-23T13:24:53.867Z,19.4
2019-05-23T13:26:36.500Z,19.4
2019-05-23T13:28:36.120Z,19.2
2019-05-23T13:30:35.804Z,19.2
2019-05-23T13:32:36.446Z,19.9
2019-05-23T13:34:36.323Z,19.9
2019-05-23T13:36:36.389Z,19.9
2019-05-23T13:38:34.434Z,19.6
2019-05-23T13:40:36.138Z,19.6
2019-05-23T13:42:35.745Z,19.6
2019-05-23T13:44:37.007Z,19.6
2019-05-23T13:46:37.078Z,19.6
2019-05-23T13:48:35.132Z,19.5
2019-05-23T13:50:36.517Z,19.5
2019-05-23T13:52:36.028Z,19.5
2019-05-23T13:54:37.670Z,19.5
2019-05-23T13:56:36.667Z,19.5
2019-05-23T13:58:36.458Z,19.5
2019-05-23T14:02:36.150Z,19.5
2019-05-23T14:04:35.779Z,19.5
2019-05-23T14:06:36.308Z,19.5
2019-05-23T14:08:35.811Z,19.3
2019-05-23T14:10:36.334Z,19.3
2019-05-23T14:12:35.882Z,19.4
2019-05-23T14:14:36.444Z,19.4
2019-05-23T14:16:36.055Z,19.4
2019-05-23T14:18:36.803Z,19.6
2019-05-23T14:20:36.418Z,19.6
2019-05-23T14:22:35.923Z,19.4
2019-05-23T14:24:38.680Z,19.4
2019-05-23T14:26:36.184Z,19.4
2019-05-23T14:28:35.704Z,19.5
2019-05-23T14:30:36.309Z,19.5
2019-05-23T14:32:35.835Z,19.8
2019-05-23T14:34:36.665Z,19.8
2019-05-23T14:36:36.234Z,19.8
2019-05-23T14:38:35.815Z,19.9
2019-05-23T14:40:36.230Z,19.9
2019-05-23T14:42:35.811Z,19.7
2019-05-23T14:44:36.397Z,19.7
2019-05-23T14:46:36.013Z,19.7
2019-05-23T14:48:37.106Z,19.7
2019-05-23T14:50:36.686Z,19.7
2019-05-23T14:52:36.126Z,19.8
2019-05-23T14:54:36.745Z,19.8
2019-05-23T14:56:36.256Z,19.8
2019-05-23T14:58:35.772Z,19.6
2019-05-23T15:00:36.309Z,19.6
2019-05-23T15:02:35.907Z,19.6
2019-05-23T15:04:36.433Z,19.6
2019-05-23T15:06:36.006Z,19.6
2019-05-23T15:08:52.603Z,19.2
2019-05-23T15:10:36.075Z,19.2
2019-05-23T15:12:36.694Z,19.2
2019-05-23T15:14:36.318Z,19.2
2019-05-23T15:16:35.861Z,19.2
2019-05-23T15:18:36.561Z,19.2
2019-05-23T15:20:36.248Z,19.2
2019-05-23T15:22:35.680Z,19.2
2019-05-23T15:24:36.264Z,19.2
2019-05-23T15:26:35.878Z,19.2
2019-05-23T15:28:36.338Z,19.1
2019-05-23T15:30:36.061Z,19.1
2019-05-23T15:32:36.421Z,19.1
2019-05-23T15:34:36.293Z,19.1
2019-05-23T15:36:35.741Z,19.1
2019-05-23T15:38:36.318Z,19.1
2019-05-23T15:40:35.710Z,19.1
2019-05-23T15:42:36.124Z,18.9
2019-05-23T15:44:36.653Z,18.9
2019-05-23T15:46:36.219Z,18.9
2019-05-23T15:48:35.665Z,18.9
2019-05-23T15:50:36.558Z,18.9
2019-05-23T15:52:36.007Z,18.7
2019-05-23T15:54:36.624Z,18.7
2019-05-23T15:56:36.035Z,18.7
2019-05-23T15:58:36.706Z,18.4
2019-05-23T16:02:36.477Z,18.4
2019-05-23T16:04:35.964Z,18.4
2019-05-23T16:06:37.130Z,18.4
2019-05-23T16:08:35.642Z,18.6
2019-05-23T16:10:36.351Z,18.6
2019-05-23T16:12:35.950Z,18.6
2019-05-23T16:14:36.469Z,18.6
2019-05-23T16:16:36.039Z,18.6
2019-05-23T16:18:37.355Z,18.5
2019-05-23T16:20:35.755Z,18.5
2019-05-23T16:22:36.460Z,18.5
2019-05-23T16:24:36.043Z,18.5
2019-05-23T16:26:36.622Z,18.5
2019-05-23T16:28:36.043Z,18.4
2019-05-23T16:30:36.652Z,18.4
2019-05-23T16:32:36.110Z,18.3
2019-05-23T16:34:36.661Z,18.3
2019-05-23T16:36:36.141Z,18.3
2019-05-23T16:38:36.761Z,18.3
2019-05-23T16:40:36.211Z,18.3
2019-05-23T16:42:35.697Z,18.2
2019-05-23T16:44:36.192Z,18.2
2019-05-23T16:46:35.662Z,18.2
2019-05-23T16:48:36.181Z,18.1
2019-05-23T16:50:36.551Z,18.1
2019-05-23T16:52:35.938Z,18
2019-05-23T16:54:36.471Z,18
2019-05-23T16:56:36.098Z,18
2019-05-23T16:58:36.622Z,17.9
2019-05-23T17:00:36.075Z,17.9
2019-05-23T17:02:35.624Z,17.9
2019-05-23T17:04:36.511Z,17.9
2019-05-23T17:06:34.664Z,17.9
2019-05-23T17:08:34.547Z,17.8
2019-05-23T17:10:35.927Z,17.8
2019-05-23T17:12:36.461Z,17.6
2019-05-23T17:14:35.995Z,17.6
2019-05-23T17:16:36.750Z,17.6
2019-05-23T17:18:36.509Z,17.4
2019-05-23T17:20:36.082Z,17.4
2019-05-23T17:22:36.599Z,17.2
2019-05-23T17:24:40.696Z,17.2
2019-05-23T17:26:36.407Z,17.2
2019-05-23T17:28:36.036Z,17
2019-05-23T17:30:36.998Z,17
2019-05-23T17:32:36.436Z,16.8
2019-05-23T17:34:36.209Z,16.8
2019-05-23T17:36:35.663Z,16.8
2019-05-23T17:38:36.129Z,16.5
2019-05-23T17:40:35.712Z,16.5
2019-05-23T17:42:36.303Z,16.3
2019-05-23T17:44:36.011Z,16.3
2019-05-23T17:46:36.764Z,16.3
2019-05-23T17:48:36.274Z,16
2019-05-23T17:50:35.868Z,16
2019-05-23T17:52:36.354Z,15.7
2019-05-23T17:54:35.844Z,15.7
2019-05-23T17:56:36.778Z,15.7
2019-05-23T17:58:36.353Z,15.5
2019-05-23T18:00:35.743Z,15.5
2019-05-23T18:02:36.175Z,15.5
2019-05-23T18:04:36.515Z,15.5
2019-05-23T18:06:36.041Z,15.5
2019-05-23T18:08:36.531Z,15
2019-05-23T18:10:46.648Z,15
2019-05-23T18:12:36.426Z,14.8
2019-05-23T18:14:35.987Z,14.8
2019-05-23T18:16:36.457Z,14.8
2019-05-23T18:18:36.154Z,14.6
2019-05-23T18:20:36.578Z,14.6
2019-05-23T18:22:36.345Z,14.4
2019-05-23T18:24:35.804Z,14.4
2019-05-23T18:26:36.341Z,14.4
2019-05-23T18:28:35.770Z,14.1
2019-05-23T18:30:36.564Z,14.1
2019-05-23T18:32:35.935Z,13.9
2019-05-23T18:34:36.502Z,13.9
2019-05-23T18:36:35.961Z,13.9
2019-05-23T18:38:36.589Z,13.8
2019-05-23T18:40:36.190Z,13.8
2019-05-23T18:42:35.649Z,13.6
2019-05-23T18:44:36.075Z,13.6
2019-05-23T18:46:38.468Z,13.6
2019-05-23T18:48:36.009Z,13.4
2019-05-23T18:50:36.652Z,13.4
2019-05-23T18:52:36.054Z,13.2
2019-05-23T18:54:36.721Z,13.2
2019-05-23T18:56:36.165Z,13.2
2019-05-23T18:58:35.755Z,13
2019-05-23T19:00:36.272Z,13
2019-05-23T19:02:35.750Z,13
2019-05-23T19:04:36.168Z,13
2019-05-23T19:06:36.580Z,13
2019-05-23T19:08:36.112Z,12.7
2019-05-23T19:10:36.631Z,12.7
2019-05-23T19:12:36.044Z,12.6
2019-05-23T19:14:36.644Z,12.6
2019-05-23T19:16:36.194Z,12.6
2019-05-23T19:18:35.843Z,12.5
2019-05-23T19:20:36.108Z,12.5
2019-05-23T19:22:36.518Z,12.6
2019-05-23T19:24:35.856Z,12.6
2019-05-23T19:26:36.485Z,12.6
2019-05-23T19:28:36.122Z,12.7
2019-05-23T19:30:35.790Z,12.7
2019-05-23T19:32:36.175Z,12.8
2019-05-23T19:34:35.642Z,12.8
2019-05-23T19:36:36.288Z,12.8
2019-05-23T19:38:36.048Z,12.9
2019-05-23T19:40:36.722Z,12.9
2019-05-23T19:42:36.556Z,12.9
2019-05-23T19:44:36.163Z,12.9
2019-05-23T19:46:35.854Z,12.9
2019-05-23T19:48:36.401Z,13
2019-05-23T19:50:35.971Z,13
2019-05-23T19:52:36.244Z,13.1
2019-05-23T19:54:35.840Z,13.1
2019-05-23T19:56:36.316Z,13.1
2019-05-23T19:58:35.887Z,13.2
2019-05-23T20:00:36.416Z,13.2
2019-05-23T20:02:35.693Z,13.2
2019-05-23T20:04:44.179Z,13.2
2019-05-23T20:06:49.168Z,13.2
2019-05-23T20:08:42.587Z,13.2
2019-05-23T20:10:44.985Z,13.4
2019-05-23T20:12:44.491Z,13.4
2019-05-23T20:14:45.174Z,13.4
2019-05-23T20:16:44.735Z,13.5
2019-05-23T20:18:44.396Z,13.5
2019-05-23T20:20:44.929Z,13.6
2019-05-23T20:22:44.507Z,13.6
2019-05-23T20:24:45.169Z,13.6
2019-05-23T20:26:45.072Z,13.7
2019-05-23T20:28:44.691Z,13.7
2019-05-23T20:30:45.117Z,13.8
2019-05-23T20:32:44.683Z,13.8
2019-05-23T20:34:45.300Z,13.8
2019-05-23T20:36:45.284Z,13.8
2019-05-23T20:38:43.517Z,13.8
2019-05-23T20:40:43.323Z,13.7
2019-05-23T20:42:44.886Z,13.7
2019-05-23T20:44:44.667Z,13.7
2019-05-23T20:46:44.211Z,13.7
2019-05-23T20:48:44.987Z,13.7
2019-05-23T20:50:44.427Z,13.6
2019-05-23T20:52:44.891Z,13.6
2019-05-23T20:54:44.596Z,13.6
2019-05-23T20:56:45.079Z,13.6
2019-05-23T20:58:44.603Z,13.6
2019-05-23T21:00:44.989Z,13.6
2019-05-23T21:02:44.380Z,13.6
2019-05-23T21:04:45.059Z,13.6
2019-05-23T21:06:44.677Z,13.5
2019-05-23T21:08:45.161Z,13.5
2019-05-23T21:10:44.723Z,13.5
2019-05-23T21:12:44.184Z,13.5
2019-05-23T21:14:44.744Z,13.5
2019-05-23T21:16:44.151Z,13.5
2019-05-23T21:18:44.696Z,13.5
2019-05-23T21:20:44.213Z,13.5
2019-05-23T21:22:44.842Z,13.5
2019-05-23T21:24:44.433Z,13.5
2019-05-23T21:26:44.795Z,13.5
2019-05-23T21:28:44.473Z,13.5
2019-05-23T21:30:44.882Z,13.5
2019-05-23T21:32:44.421Z,13.5
2019-05-23T21:34:44.878Z,13.5
2019-05-23T21:36:44.374Z,13.4
2019-05-23T21:38:44.898Z,13.4
2019-05-23T21:40:44.508Z,13.4
2019-05-23T21:42:48.719Z,13.4
2019-05-23T21:44:44.134Z,13.4
2019-05-23T21:54:37.044Z,12.9
2019-05-23T21:56:36.555Z,12.9
2019-05-23T21:58:37.050Z,12.8
2019-05-23T22:00:39.034Z,12.8
2019-05-23T22:02:35.073Z,12.8
2019-05-23T22:04:44.388Z,12.8
2019-05-23T22:06:47.912Z,12.8
2019-05-23T22:08:44.544Z,12.8
2019-05-23T22:10:44.188Z,12.8
2019-05-23T22:12:44.795Z,12.5
2019-05-23T22:14:44.318Z,12.5
2019-05-23T22:16:44.795Z,12.4
2019-05-23T22:18:44.561Z,12.4
2019-05-23T22:20:44.231Z,12.4
2019-05-23T22:22:44.906Z,12.2
2019-05-23T22:26:44.461Z,12.2
2019-05-23T22:28:43.896Z,12.2
2019-05-23T22:30:44.424Z,12.2
2019-05-23T22:32:44.330Z,12.2
2019-05-23T22:34:44.813Z,12.2
2019-05-23T22:36:44.146Z,12.2
2019-05-23T22:38:44.798Z,12.2
2019-05-23T22:40:44.356Z,12.2
2019-05-23T22:42:44.783Z,12.4
2019-05-23T22:44:44.304Z,12.4
2019-05-23T22:46:44.790Z,12.4
2019-05-23T22:48:44.396Z,12.4
2019-05-23T22:50:43.827Z,12.4
2019-05-23T22:52:44.478Z,12.5
2019-05-23T22:54:44.099Z,12.5
2019-05-23T22:56:44.587Z,12.5
2019-05-23T22:58:44.304Z,12.5
2019-05-23T23:00:44.793Z,12.5
2019-05-23T23:02:46.762Z,12.6
2019-05-23T23:04:42.862Z,12.6
2019-05-23T23:06:44.222Z,12.6
2019-05-23T23:08:44.760Z,12.6
2019-05-23T23:10:44.347Z,12.6
2019-05-23T23:12:44.764Z,12.6
2019-05-23T23:14:44.246Z,12.6
2019-05-23T23:16:44.723Z,12.6
2019-05-23T23:18:44.437Z,12.6
2019-05-23T23:20:46.691Z,12.6
2019-05-23T23:22:44.249Z,12.6
2019-05-23T23:24:44.713Z,12.6
2019-05-23T23:26:44.176Z,12.6
2019-05-23T23:28:44.636Z,12.6
2019-05-23T23:30:44.110Z,12.6
2019-05-23T23:32:44.643Z,12.6
2019-05-23T23:34:44.647Z,12.6
2019-05-23T23:36:42.594Z,12.6
2019-05-23T23:38:42.534Z,12.6
2019-05-23T23:40:44.231Z,12.6
2019-05-23T23:42:44.755Z,12.7
2019-05-23T23:44:44.209Z,12.7
2019-05-23T23:46:44.947Z,12.7
2019-05-23T23:48:44.450Z,12.7
2019-05-23T23:50:44.146Z,12.7
2019-05-23T23:52:44.829Z,12.8
2019-05-23T23:54:44.495Z,12.8
2019-05-23T23:56:43.940Z,12.8
2019-05-23T23:58:44.506Z,12.8
